Lake Dynasty — 3FZB2 — position and weather

sailwx.info

Track history (hours):
 
Tides and Currents Weather Stations Pressure Air Temp Water Temp Dewpoint Dewpoint Depression Visibility Wind Speed Wind Dir Waves Ship Positions

Lake Dynasty

Last reported at 2014-Oct-14 11:19 UTC. Time now 2014-Oct-25 18:21 UTC.
Position N 30°45' E 123°11'.
Warning: this ship's position is 11 days out of date.

Length 182 m; draft 6.2 m.

Type: Cargo ship. MMSI: 370957000.

Date/timePositionNaut miles runAvg speedWind from/ knotsBaromVisibWave heightAir tempDewpointWater temp
2014-Oct-14 11:19N 30°45' E 123°11'3 3.0
2014-Oct-14 10:16N 30°48' E 123°09'2 2.9
2014-Oct-14 09:25N 30°49' E 123°07'2 2.8
2014-Oct-14 08:32N 30°51' E 123°05'1 0.0
2014-Oct-12 10:06N 30°50' E 123°04'2 3.9
2014-Oct-12 09:32N 30°52' E 123°02'2 1.2
2014-Oct-12 08:07N 30°52' E 123°00'3 3.5
2014-Oct-12 07:14N 30°49' E 122°60'2 2.8
2014-Oct-12 06:27N 30°50' E 122°58'2 2.2
2014-Oct-12 05:33N 30°51' E 122°56'1 0.9
2014-Oct-12 04:32N 30°50' E 122°55'2 0.8
2014-Oct-12 02:04N 30°52' E 122°54'1 1.4
2014-Oct-12 01:27N 30°51' E 122°54'3 3.8
2014-Oct-12 00:33N 30°48' E 122°53'2 2.1
2014-Oct-11 23:33N 30°50' E 122°53'4 4.0
2014-Oct-11 22:33N 30°54' E 122°51'2 1.7
2014-Oct-11 21:31N 30°53' E 122°53'3 3.2
2014-Oct-11 20:33N 30°50' E 122°54'3 3.2
2014-Oct-11 19:33N 30°53' E 122°52'3 2.7
2014-Oct-11 18:33N 30°54' E 122°50'2 2.2
2014-Oct-11 17:32N 30°56' E 122°48'1 1.1
2014-Oct-11 16:22N 30°57' E 122°47'0 0.6
2014-Oct-11 15:33N 30°57' E 122°46'0 0.4
2014-Oct-11 14:32N 30°56' E 122°47'3 2.8
2014-Oct-11 13:33N 30°57' E 122°50'2 1.8
2014-Oct-11 12:33N 30°55' E 122°50'1 0.6
2014-Oct-11 11:33N 30°55' E 122°49'1 1.0
2014-Oct-11 10:33N 30°54' E 122°49'5 5.2
2014-Oct-11 09:30N 30°50' E 122°54'2 2.1
2014-Oct-11 08:33N 30°52' E 122°53'3 2.7
2014-Oct-11 07:33N 30°54' E 122°51'2 1.7
2014-Oct-11 06:33N 30°55' E 122°49'1 1.0
2014-Oct-11 05:33N 30°56' E 122°48'1 1.0
2014-Oct-11 04:33N 30°56' E 122°47'0 0.2
2014-Oct-11 03:33N 30°56' E 122°47'1 1.0
2014-Oct-11 02:33N 30°57' E 122°48'5 5.1
2014-Oct-11 01:31N 30°55' E 122°42'1 1.4
2014-Oct-11 00:33N 30°55' E 122°44'3 2.9
2014-Oct-10 23:26N 30°55' E 122°47'2 2.1
2014-Oct-10 22:32N 30°56' E 122°49'5 4.6
2014-Oct-10 21:33N 30°53' E 122°45'1 1.1
2014-Oct-10 20:30N 30°54' E 122°45'10 9.2
2014-Oct-10 19:27N 30°58' E 122°35'1111.8
2014-Oct-10 18:33N 31°01' E 122°23'1212.4
2014-Oct-10 17:33N 31°03' E 122°09'9 9.1
2014-Oct-10 16:32N 31°06' E 121°59'9 8.7
2014-Oct-10 15:28N 31°11' E 121°50'9 9.5
2014-Oct-10 14:32N 31°18' E 121°43'1111.2
2014-Oct-10 13:33N 31°24' E 121°33'1010.0
2014-Oct-10 12:33N 31°31' E 121°24'1312.4
2014-Oct-10 11:32N 31°39' E 121°13'1 0.3
2014-Oct-10 06:26N 31°40' E 121°11'0 0.0
2014-Oct-10 04:26N 31°40' E 121°11'0 0.0
2014-Oct-10 00:14N 31°40' E 121°11'0 0.0
2014-Oct-09 23:26N 31°40' E 121°11'0 0.0
2014-Oct-09 22:32N 31°40' E 121°11'0 0.0
2014-Oct-09 21:20N 31°40' E 121°11'0 0.0
2014-Oct-09 19:32N 31°40' E 121°11'0 0.0
2014-Oct-09 18:32N 31°40' E 121°11'0 0.0
2014-Oct-09 17:26N 31°40' E 121°11'0 0.0
2014-Oct-09 16:20N 31°40' E 121°11'0 0.0
2014-Oct-09 14:08N 31°40' E 121°11'0 0.0
2014-Oct-09 12:32N 31°40' E 121°11'0 0.0
2014-Oct-09 11:32N 31°40' E 121°11'0 0.0
2014-Oct-09 09:26N 31°40' E 121°11'0 0.0
2014-Oct-09 07:20N 31°40' E 121°11'0 0.0
2014-Oct-09 05:32N 31°40' E 121°11'0 0.0
2014-Oct-09 03:14N 31°40' E 121°11'0 0.0
2014-Oct-09 02:32N 31°40' E 121°11'0 0.0
2014-Oct-09 01:26N 31°40' E 121°11'0 0.0
2014-Oct-09 00:14N 31°40' E 121°11'0 0.0
2014-Oct-08 22:32N 31°40' E 121°11'0 0.0
2014-Oct-08 21:14N 31°40' E 121°11'0 0.0
2014-Oct-08 20:32N 31°40' E 121°11'0 0.0
2014-Oct-08 19:26N 31°40' E 121°11'0 0.0
2014-Oct-08 15:32N 31°40' E 121°11'0 0.0
2014-Oct-08 14:08N 31°40' E 121°11'0 0.0
2014-Oct-08 13:14N 31°40' E 121°11'0 0.0
2014-Oct-08 12:14N 31°40' E 121°11'0 0.0
2014-Oct-08 11:26N 31°40' E 121°11'0 0.0
2014-Oct-08 09:20N 31°40' E 121°11'0 0.0
2014-Oct-08 08:26N 31°40' E 121°11'0 0.0
2014-Oct-08 07:30N 31°40' E 121°11'5 5.0
2014-Oct-08 06:33N 31°37' E 121°16'1111.3
2014-Oct-08 05:33N 31°30' E 121°26'9 8.9
2014-Oct-08 04:33N 31°24' E 121°34'8 8.0
2014-Oct-08 03:33N 31°20' E 121°42'48 3.9
2014-Oct-07 15:16N 31°10' E 122°37'19 1.8
2014-Oct-07 05:08N 30°58' E 122°53'610.6
2014-Oct-07 04:32N 30°52' E 122°56'1010.4
2014-Oct-07 03:33N 30°43' E 123°02'  
Track history (hours):
 
Tides and Currents Weather Stations Pressure Air Temp Water Temp Dewpoint Dewpoint Depression Visibility Wind Speed Wind Dir Waves Ship Positions

Lake Dynasty

Last reported at 2014-Oct-14 11:19 UTC. Time now 2014-Oct-25 18:21 UTC.
Position N 30°45' E 123°11'.
Warning: this ship's position is 11 days out of date.

Length 182 m; draft 6.2 m.

Type: Cargo ship. MMSI: 370957000.

Date/timePositionNaut miles runAvg speedWind from/ knotsBaromVisibWave heightAir tempDewpointWater temp
2014-Oct-14 11:19N 30°45' E 123°11'3 3.0
2014-Oct-14 10:16N 30°48' E 123°09'2 2.9
2014-Oct-14 09:25N 30°49' E 123°07'2 2.8
2014-Oct-14 08:32N 30°51' E 123°05'1 0.0
2014-Oct-12 10:06N 30°50' E 123°04'2 3.9
2014-Oct-12 09:32N 30°52' E 123°02'2 1.2
2014-Oct-12 08:07N 30°52' E 123°00'3 3.5
2014-Oct-12 07:14N 30°49' E 122°60'2 2.8
2014-Oct-12 06:27N 30°50' E 122°58'2 2.2
2014-Oct-12 05:33N 30°51' E 122°56'1 0.9
2014-Oct-12 04:32N 30°50' E 122°55'2 0.8
2014-Oct-12 02:04N 30°52' E 122°54'1 1.4
2014-Oct-12 01:27N 30°51' E 122°54'3 3.8
2014-Oct-12 00:33N 30°48' E 122°53'2 2.1
2014-Oct-11 23:33N 30°50' E 122°53'4 4.0
2014-Oct-11 22:33N 30°54' E 122°51'2 1.7
2014-Oct-11 21:31N 30°53' E 122°53'3 3.2
2014-Oct-11 20:33N 30°50' E 122°54'3 3.2
2014-Oct-11 19:33N 30°53' E 122°52'3 2.7
2014-Oct-11 18:33N 30°54' E 122°50'2 2.2
2014-Oct-11 17:32N 30°56' E 122°48'1 1.1
2014-Oct-11 16:22N 30°57' E 122°47'0 0.6
2014-Oct-11 15:33N 30°57' E 122°46'0 0.4
2014-Oct-11 14:32N 30°56' E 122°47'3 2.8
2014-Oct-11 13:33N 30°57' E 122°50'2 1.8
2014-Oct-11 12:33N 30°55' E 122°50'1 0.6
2014-Oct-11 11:33N 30°55' E 122°49'1 1.0
2014-Oct-11 10:33N 30°54' E 122°49'5 5.2
2014-Oct-11 09:30N 30°50' E 122°54'2 2.1
2014-Oct-11 08:33N 30°52' E 122°53'3 2.7
2014-Oct-11 07:33N 30°54' E 122°51'2 1.7
2014-Oct-11 06:33N 30°55' E 122°49'1 1.0
2014-Oct-11 05:33N 30°56' E 122°48'1 1.0
2014-Oct-11 04:33N 30°56' E 122°47'0 0.2
2014-Oct-11 03:33N 30°56' E 122°47'1 1.0
2014-Oct-11 02:33N 30°57' E 122°48'5 5.1
2014-Oct-11 01:31N 30°55' E 122°42'1 1.4
2014-Oct-11 00:33N 30°55' E 122°44'3 2.9
2014-Oct-10 23:26N 30°55' E 122°47'2 2.1
2014-Oct-10 22:32N 30°56' E 122°49'5 4.6
2014-Oct-10 21:33N 30°53' E 122°45'1 1.1
2014-Oct-10 20:30N 30°54' E 122°45'10 9.2
2014-Oct-10 19:27N 30°58' E 122°35'1111.8
2014-Oct-10 18:33N 31°01' E 122°23'1212.4
2014-Oct-10 17:33N 31°03' E 122°09'9 9.1
2014-Oct-10 16:32N 31°06' E 121°59'9 8.7
2014-Oct-10 15:28N 31°11' E 121°50'9 9.5
2014-Oct-10 14:32N 31°18' E 121°43'1111.2
2014-Oct-10 13:33N 31°24' E 121°33'1010.0
2014-Oct-10 12:33N 31°31' E 121°24'1312.4
2014-Oct-10 11:32N 31°39' E 121°13'1 0.3
2014-Oct-10 06:26N 31°40' E 121°11'0 0.0
2014-Oct-10 04:26N 31°40' E 121°11'0 0.0
2014-Oct-10 00:14N 31°40' E 121°11'0 0.0
2014-Oct-09 23:26N 31°40' E 121°11'0 0.0
2014-Oct-09 22:32N 31°40' E 121°11'0 0.0
2014-Oct-09 21:20N 31°40' E 121°11'0 0.0
2014-Oct-09 19:32N 31°40' E 121°11'0 0.0
2014-Oct-09 18:32N 31°40' E 121°11'0 0.0
2014-Oct-09 17:26N 31°40' E 121°11'0 0.0
2014-Oct-09 16:20N 31°40' E 121°11'0 0.0
2014-Oct-09 14:08N 31°40' E 121°11'0 0.0
2014-Oct-09 12:32N 31°40' E 121°11'0 0.0
2014-Oct-09 11:32N 31°40' E 121°11'0 0.0
2014-Oct-09 09:26N 31°40' E 121°11'0 0.0
2014-Oct-09 07:20N 31°40' E 121°11'0 0.0
2014-Oct-09 05:32N 31°40' E 121°11'0 0.0
2014-Oct-09 03:14N 31°40' E 121°11'0 0.0
2014-Oct-09 02:32N 31°40' E 121°11'0 0.0
2014-Oct-09 01:26N 31°40' E 121°11'0 0.0
2014-Oct-09 00:14N 31°40' E 121°11'0 0.0
2014-Oct-08 22:32N 31°40' E 121°11'0 0.0
2014-Oct-08 21:14N 31°40' E 121°11'0 0.0
2014-Oct-08 20:32N 31°40' E 121°11'0 0.0
2014-Oct-08 19:26N 31°40' E 121°11'0 0.0
2014-Oct-08 15:32N 31°40' E 121°11'0 0.0
2014-Oct-08 14:08N 31°40' E 121°11'0 0.0
2014-Oct-08 13:14N 31°40' E 121°11'0 0.0
2014-Oct-08 12:14N 31°40' E 121°11'0 0.0
2014-Oct-08 11:26N 31°40' E 121°11'0 0.0
2014-Oct-08 09:20N 31°40' E 121°11'0 0.0
2014-Oct-08 08:26N 31°40' E 121°11'0 0.0
2014-Oct-08 07:30N 31°40' E 121°11'5 5.0
2014-Oct-08 06:33N 31°37' E 121°16'1111.3
2014-Oct-08 05:33N 31°30' E 121°26'9 8.9
2014-Oct-08 04:33N 31°24' E 121°34'8 8.0
2014-Oct-08 03:33N 31°20' E 121°42'48 3.9
2014-Oct-07 15:16N 31°10' E 122°37'19 1.8
2014-Oct-07 05:08N 30°58' E 122°53'610.6
2014-Oct-07 04:32N 30°52' E 122°56'1010.4
2014-Oct-07 03:33N 30°43' E 123°02'  

Dump ship's entire track history